Portada
METAR-TAF:

METAR-TAF

Aeroports :

Yezd, Iran

latitud: 31-54N, longitud: 054-24E, altitud: 1238 m

Observació

L'informe es va fer fa 18 minuts, a les 05:00 UTC
Vent 2 kt del Nord
Temperatura 28°C
Humitat 15%
Pressió 1014 hPa
Visibilitat 10 km o més
Escasses núvols a una alçada de 4000 ft

METAR: OIYY 220500Z 36002KT 9999 FEW040 28/M01 Q1014

Hora: 08:48 (05:18 UTC)

Pronòstic

L'informe es va fer fa 3 hores i 8 minuts, a les 02:10 UTC
Pronòstic vàlid del 22 a les 03 UTC al 22 a les 12 UTC
Vent 8 kt del Sud/Sud-Est
Visibilitat: 8000 m
Escasses núvols a una alçada de 4500 ft
Temporalment
l' 22 a les 06 UTC al 22 a les 09 UTC
Escasses núvols a una alçada de 3500 ft, Cumulus congestus.
Núvols disperses a una alçada de 4000 ft

TAF: OIYY 220210Z 2203/2212 16008KT 8000 FEW045 TEMPO 2206/2209 FEW035TCU SCT040

Observacions i pronòstics meteorològics de més de 4000 aeroports (METAR i TAF).

Les estacions disponibles són els punts grocs i vermells al mapa.

Posi el ratolí al punt desitjat per veure el nom de l'estació.

Feu clic per veure les observacions i els pronòstics meteorològics.

Per canviar el mapa: feu clic els botons verds amb una creu de color negre per apropar; al botó verd amb un guió per allunyar la imatge; o en les fletxes verdes per a mapes adjacents.


METAR-TAF: